Tropical Cyclones
[Index]
Main Index Home Page Stock Weather Photos Extreme Storms Discussion Storm News and Storm Chasing Reports Tropical Cyclones / Hurricanes / Typhoons Weather Data and Links Wild Fires / Bushfires Weather Observation Techniques Weather Picture Catalogue Tornado Pictures and Reports Stock Video Footage and DVDs for sale
Season 1970-1971 Tropical Cyclone BEVERLEY-EVA Track Map
Season 1970-1971 Summaries: [BoM-AU] [JTWC-AU] [JTWC-SIO] [JTWC-SPAC] [JTWC-SH]
<<- Previous TC | BoM 1970-1971 Season | Next TC ->>

click for intensity scale information  Lat/long Grid: Show Hide

 Date Labels: Show Hide

Bureau of Meteorology Tropical Cyclone Data

Name: BEVERLEY-EVA
Number: 466 / 197071_03

26 Nov 1970 06:00 UTC to 07 Dec 1970 01:00 UTC

    date/time    lat    long    hPa   cat  kts
1970-11-26 06    9.0   138.0   1003                     
1970-11-26 12    9.0   137.0   1003                     
1970-11-26 23    9.3   136.0   1003                     
1970-11-27 12   10.5   134.6   1001                     
1970-11-27 23   11.0   134.8   1001                     
1970-11-28 12   11.7   134.9   1000                     
1970-11-28 23   12.0   135.1    995    1                
1970-11-29 02   12.2   135.1    995    1                
1970-12-01 16   11.1   129.0   1000                     
1970-12-01 23   12.2   126.3    990    1                
1970-12-02 07   12.9   125.5    990    1                
1970-12-03 01   14.3   123.2    980    2                
1970-12-03 12   15.4   121.3    970    3                
1970-12-03 16   15.9   121.3    970    3                
1970-12-04 01   16.7   122.0    970    3                
1970-12-04 04   16.9   122.3    970    3                
1970-12-04 13   17.1   123.0    980    2                
1970-12-05 01   17.7   123.9    990    1                
1970-12-06 01   19.1   125.9   1000                     
1970-12-07 01   17.6   127.2   1002                     
Winds are 10-min average.

Tropical cyclone tracks developed by Michael Bath using data from the Bureau of Meteorology and Google Maps.


[Australian Severe Weather index] [Copyright Notice] [Email Contacts] [Search This Site] [Privacy Policy]
Document: tropical_cyclone_beverley-eva.htm Updated: 30 May 2013